createdAt,value
2017-04-30T00:00:45.858Z,82.20
2017-04-30T00:03:14.541Z,83.00
2017-04-30T00:05:43.182Z,83.00
2017-04-30T00:08:11.821Z,83.40
2017-04-30T00:10:40.494Z,83.40
2017-04-30T00:13:09.134Z,83.80
2017-04-30T00:15:37.774Z,83.40
2017-04-30T00:18:06.527Z,83.20
2017-04-30T00:20:35.165Z,83.50
2017-04-30T00:23:04.182Z,83.90
2017-04-30T00:25:33.044Z,83.70
2017-04-30T00:28:02.062Z,82.90
2017-04-30T00:30:30.702Z,83.20
2017-04-30T00:32:59.202Z,83.20
2017-04-30T00:35:28.210Z,83.30
2017-04-30T00:37:56.853Z,83.10
2017-04-30T00:40:25.142Z,83.10
2017-04-30T00:42:53.778Z,83.10
2017-04-30T00:45:22.419Z,83.40
2017-04-30T00:47:51.307Z,83.50
2017-04-30T00:50:20.309Z,82.70
2017-04-30T00:52:48.553Z,82.70
2017-04-30T00:55:16.827Z,83.00
2017-04-30T00:57:45.457Z,82.90
2017-04-30T01:00:14.093Z,82.50
2017-04-30T01:02:43.147Z,82.40
2017-04-30T01:05:11.783Z,83.00
2017-04-30T01:07:40.024Z,83.00
2017-04-30T01:10:08.959Z,82.70
2017-04-30T01:12:37.598Z,82.50
2017-04-30T01:15:06.235Z,82.40
2017-04-30T01:17:35.240Z,82.60
2017-04-30T01:20:03.882Z,83.10
2017-04-30T01:22:32.882Z,82.70
2017-04-30T01:25:01.774Z,83.50
2017-04-30T01:27:30.409Z,83.60
2017-04-30T01:29:59.054Z,83.30
2017-04-30T01:32:27.702Z,83.50
2017-04-30T01:34:56.715Z,83.20
2017-04-30T01:37:25.354Z,83.00
2017-04-30T01:39:54.107Z,83.50
2017-04-30T01:42:22.354Z,83.50
2017-04-30T01:44:51.290Z,82.70
2017-04-30T01:47:20.209Z,82.90
2017-04-30T01:49:48.862Z,83.10
2017-04-30T01:52:17.498Z,83.20
2017-04-30T01:54:45.783Z,83.20
2017-04-30T01:57:14.925Z,82.90
2017-04-30T01:59:43.563Z,82.40
2017-04-30T02:02:12.534Z,82.30
2017-04-30T02:04:40.787Z,82.30
2017-04-30T02:07:09.418Z,82.90
2017-04-30T02:09:37.974Z,82.90
2017-04-30T02:12:06.978Z,83.00
2017-04-30T02:14:35.620Z,83.30
2017-04-30T02:17:04.434Z,82.60
2017-04-30T02:19:33.441Z,82.70
2017-04-30T02:22:02.091Z,82.80
2017-04-30T02:24:30.849Z,82.50
2017-04-30T02:26:59.482Z,82.80
2017-04-30T02:29:28.117Z,82.80
2017-04-30T02:31:56.797Z,83.00
2017-04-30T02:34:25.434Z,82.80
2017-04-30T02:36:54.074Z,82.90
2017-04-30T02:39:22.741Z,83.10
2017-04-30T02:41:51.377Z,82.70
2017-04-30T02:44:20.377Z,83.30
2017-04-30T02:46:49.260Z,83.30
2017-04-30T02:49:17.506Z,83.30
2017-04-30T02:51:46.141Z,83.10
2017-04-30T02:54:14.903Z,83.20
2017-04-30T02:56:43.546Z,83.30
2017-04-30T02:59:12.187Z,83.00
2017-04-30T03:01:40.562Z,83.00
2017-04-30T03:04:09.220Z,83.40
2017-04-30T03:06:37.465Z,83.40
2017-04-30T03:09:06.370Z,83.70
2017-04-30T03:11:34.614Z,83.70
2017-04-30T03:14:03.253Z,83.80
2017-04-30T03:16:32.138Z,83.40
2017-04-30T03:19:00.772Z,83.60
2017-04-30T03:21:29.413Z,84.20
2017-04-30T03:23:58.381Z,84.00
2017-04-30T03:26:27.390Z,83.90
2017-04-30T03:28:56.030Z,84.20
2017-04-30T03:31:24.700Z,84.00
2017-04-30T03:33:53.337Z,83.90
2017-04-30T03:36:21.979Z,84.50
2017-04-30T03:39:02.635Z,84.00
2017-04-30T03:41:49.277Z,84.30
2017-04-30T03:44:35.909Z,84.70
2017-04-30T03:47:22.561Z,85.00
2017-04-30T03:50:08.990Z,85.00
2017-04-30T03:52:55.145Z,84.70
2017-04-30T03:55:41.694Z,85.40
2017-04-30T03:58:28.253Z,85.20
2017-04-30T04:01:14.999Z,85.50
2017-04-30T04:04:01.625Z,85.00
2017-04-30T04:06:47.873Z,85.00
2017-04-30T04:09:34.379Z,85.00
2017-04-30T04:12:21.641Z,84.80
2017-04-30T04:15:08.161Z,85.20
2017-04-30T04:17:55.229Z,84.90
2017-04-30T04:20:42.045Z,84.30
2017-04-30T04:23:28.820Z,84.80
2017-04-30T04:26:15.451Z,84.90
2017-04-30T04:29:02.129Z,84.90
2017-04-30T04:31:49.198Z,85.20
2017-04-30T04:34:36.389Z,85.10
2017-04-30T04:37:22.955Z,84.60
2017-04-30T04:40:09.659Z,85.00
2017-04-30T04:42:56.255Z,84.60
2017-04-30T04:45:43.026Z,84.60
2017-04-30T04:48:29.605Z,84.40
2017-04-30T04:51:16.125Z,84.30
2017-04-30T04:54:02.701Z,84.50
2017-04-30T04:56:49.718Z,84.70
2017-04-30T04:59:36.211Z,84.20
2017-04-30T05:02:23.559Z,84.00
2017-04-30T05:05:10.407Z,85.00
2017-04-30T05:07:57.138Z,85.00
2017-04-30T05:10:43.122Z,85.00
2017-04-30T05:13:29.215Z,84.70
2017-04-30T05:16:16.017Z,84.30
2017-04-30T05:19:02.965Z,83.50
2017-04-30T05:21:49.175Z,83.50
2017-04-30T05:24:36.237Z,83.60
2017-04-30T05:27:22.846Z,83.20
2017-04-30T05:30:09.902Z,83.90
2017-04-30T05:32:56.405Z,83.60
2017-04-30T05:35:43.729Z,83.10
2017-04-30T05:38:30.281Z,83.70
2017-04-30T05:41:16.366Z,83.70
2017-04-30T05:44:02.883Z,83.10
2017-04-30T05:46:49.505Z,82.90
2017-04-30T05:49:35.550Z,82.90
2017-04-30T05:52:22.279Z,82.70
2017-04-30T05:55:08.901Z,83.30
2017-04-30T05:57:56.143Z,82.40
2017-04-30T06:00:42.655Z,82.30
2017-04-30T06:03:29.967Z,81.80
2017-04-30T06:06:16.439Z,81.60
2017-04-30T06:09:03.805Z,81.50
2017-04-30T06:11:50.422Z,81.50
2017-04-30T06:14:37.340Z,81.60
2017-04-30T06:17:24.069Z,81.00
2017-04-30T06:20:10.893Z,80.60
2017-04-30T06:22:57.518Z,80.60
2017-04-30T06:25:44.333Z,80.20
2017-04-30T06:28:31.287Z,79.50
2017-04-30T06:31:18.353Z,79.50
2017-04-30T06:34:04.468Z,79.50
2017-04-30T06:36:51.089Z,77.10
2017-04-30T06:39:37.632Z,77.60
2017-04-30T06:42:24.669Z,77.50
2017-04-30T06:45:11.220Z,76.10
2017-04-30T06:47:57.434Z,76.10
2017-04-30T06:50:43.945Z,76.60
2017-04-30T06:53:30.854Z,76.70
2017-04-30T06:56:17.321Z,75.90
2017-04-30T06:59:04.347Z,75.40
2017-04-30T07:01:51.277Z,75.00
2017-04-30T07:04:37.994Z,74.50
2017-04-30T07:07:24.477Z,74.50
2017-04-30T07:10:11.849Z,73.80
2017-04-30T07:12:58.473Z,71.60
2017-04-30T07:15:45.209Z,72.30
2017-04-30T07:18:31.750Z,71.30
2017-04-30T07:21:18.216Z,70.90
2017-04-30T07:24:04.695Z,70.60
2017-04-30T07:26:51.570Z,71.40
2017-04-30T07:29:37.970Z,69.50
2017-04-30T07:32:25.080Z,68.60
2017-04-30T07:35:11.519Z,68.00
2017-04-30T07:37:58.070Z,67.90
2017-04-30T07:40:44.409Z,67.90
2017-04-30T07:43:19.125Z,66.00
2017-04-30T07:45:47.376Z,65.90
2017-04-30T07:48:16.005Z,67.70
2017-04-30T07:50:44.784Z,65.00
2017-04-30T07:53:13.016Z,65.00
2017-04-30T07:55:42.015Z,64.90
2017-04-30T07:58:11.026Z,65.00
2017-04-30T08:00:39.825Z,64.50
2017-04-30T08:03:08.063Z,64.50
2017-04-30T08:05:37.121Z,64.50
2017-04-30T08:08:05.444Z,64.50
2017-04-30T08:10:34.074Z,63.40
2017-04-30T08:13:02.738Z,62.70
2017-04-30T08:15:31.370Z,62.40
2017-04-30T08:17:59.613Z,62.40
2017-04-30T08:20:28.677Z,61.10
2017-04-30T08:22:57.313Z,61.30
2017-04-30T08:25:25.569Z,61.30
2017-04-30T08:27:54.260Z,60.40
2017-04-30T08:30:22.503Z,60.50
2017-04-30T08:32:51.138Z,60.20
2017-04-30T08:35:19.817Z,59.00
2017-04-30T08:37:48.363Z,59.00
2017-04-30T08:40:16.990Z,57.30
2017-04-30T08:42:45.914Z,58.00
2017-04-30T08:45:14.900Z,57.00
2017-04-30T08:47:44.432Z,57.00
2017-04-30T08:50:13.424Z,56.80
2017-04-30T08:52:42.048Z,56.40
2017-04-30T08:55:10.697Z,55.10
2017-04-30T08:57:39.454Z,54.80
2017-04-30T09:00:08.086Z,55.70
2017-04-30T09:02:37.101Z,55.10
2017-04-30T09:05:06.088Z,56.20
2017-04-30T09:07:35.427Z,55.00
2017-04-30T09:10:04.081Z,55.60
2017-04-30T09:12:32.958Z,56.50
2017-04-30T09:15:01.600Z,55.40
2017-04-30T09:17:30.235Z,55.10
2017-04-30T09:19:58.618Z,55.00
2017-04-30T09:22:27.254Z,53.70
2017-04-30T09:24:56.811Z,54.30
2017-04-30T09:27:25.047Z,54.30
2017-04-30T09:29:54.104Z,53.60
2017-04-30T09:32:22.747Z,52.40
2017-04-30T09:34:51.020Z,52.40
2017-04-30T09:37:19.666Z,52.90
2017-04-30T09:39:48.299Z,52.40
2017-04-30T09:42:16.961Z,53.50
2017-04-30T09:44:45.599Z,52.60
2017-04-30T09:47:14.909Z,53.10
2017-04-30T09:49:43.654Z,52.90
2017-04-30T09:52:12.293Z,53.00
2017-04-30T09:54:41.926Z,53.40
2017-04-30T09:57:10.218Z,53.40
2017-04-30T09:59:38.857Z,52.60
2017-04-30T10:02:07.478Z,51.80
2017-04-30T10:04:36.286Z,50.60
2017-04-30T10:07:04.921Z,50.80
2017-04-30T10:09:33.557Z,51.30
2017-04-30T10:12:02.358Z,51.50
2017-04-30T10:14:30.998Z,53.10
2017-04-30T10:16:59.242Z,53.10
2017-04-30T10:19:27.995Z,53.20
2017-04-30T10:21:56.633Z,51.10
2017-04-30T10:24:25.267Z,51.50
2017-04-30T10:26:53.950Z,51.30
2017-04-30T10:29:22.593Z,48.60
2017-04-30T10:31:50.831Z,48.60
2017-04-30T10:34:19.709Z,48.00
2017-04-30T10:36:48.721Z,48.70
2017-04-30T10:39:17.375Z,49.50
2017-04-30T10:41:45.652Z,49.50
2017-04-30T10:44:14.296Z,46.80
2017-04-30T10:46:42.929Z,46.70
2017-04-30T10:49:11.694Z,46.60
2017-04-30T10:51:41.302Z,47.40
2017-04-30T10:54:09.941Z,47.50
2017-04-30T10:56:38.845Z,47.10
2017-04-30T10:59:07.486Z,46.50
2017-04-30T11:01:36.155Z,47.20
2017-04-30T11:04:05.210Z,48.00
2017-04-30T11:06:34.158Z,46.50
2017-04-30T11:09:02.789Z,45.40
2017-04-30T11:11:31.662Z,45.20
2017-04-30T11:13:59.910Z,45.20
2017-04-30T11:16:28.541Z,44.60
2017-04-30T11:18:57.225Z,44.10
2017-04-30T11:21:25.861Z,44.30
2017-04-30T11:23:56.886Z,44.50
2017-04-30T11:26:26.010Z,44.50
2017-04-30T11:28:54.661Z,46.70
2017-04-30T11:31:23.297Z,45.80
2017-04-30T11:33:52.158Z,43.20
2017-04-30T11:36:20.800Z,44.50
2017-04-30T11:38:49.439Z,46.90
2017-04-30T11:41:18.344Z,45.40
2017-04-30T11:43:46.979Z,45.80
2017-04-30T11:46:15.621Z,45.60
2017-04-30T11:48:44.650Z,45.30
2017-04-30T11:51:13.291Z,44.00
2017-04-30T11:53:42.256Z,43.40
2017-04-30T11:56:10.931Z,43.30
2017-04-30T11:58:39.570Z,42.20
2017-04-30T12:01:08.573Z,44.10
2017-04-30T12:03:37.258Z,43.00
2017-04-30T12:06:05.896Z,42.80
2017-04-30T12:08:34.143Z,42.80
2017-04-30T12:11:02.425Z,43.60
2017-04-30T12:13:31.329Z,43.90
2017-04-30T12:15:59.979Z,42.80
2017-04-30T12:18:28.649Z,41.90
2017-04-30T12:20:57.282Z,42.20
2017-04-30T12:23:25.918Z,42.10
2017-04-30T12:25:54.902Z,42.00
2017-04-30T12:28:23.541Z,42.30
2017-04-30T12:30:52.177Z,43.00
2017-04-30T12:33:20.736Z,43.00
2017-04-30T12:35:48.997Z,43.10
2017-04-30T12:38:17.242Z,42.20
2017-04-30T12:40:46.278Z,41.00
2017-04-30T12:43:15.291Z,38.90
2017-04-30T12:45:43.933Z,40.80
2017-04-30T12:48:12.596Z,40.30
2017-04-30T12:50:41.235Z,40.60
2017-04-30T12:53:09.879Z,40.30
2017-04-30T12:55:38.817Z,41.50
2017-04-30T12:58:07.472Z,41.70
2017-04-30T13:00:36.481Z,40.50
2017-04-30T13:03:05.142Z,40.30
2017-04-30T13:05:34.154Z,40.30
2017-04-30T13:08:02.412Z,40.30
2017-04-30T13:10:31.012Z,39.20
2017-04-30T13:12:59.271Z,39.10
2017-04-30T13:15:27.824Z,38.50
2017-04-30T13:17:57.457Z,39.30
2017-04-30T13:20:26.484Z,40.30
2017-04-30T13:22:55.117Z,40.30
2017-04-30T13:25:24.431Z,39.80
2017-04-30T13:27:53.780Z,38.90
2017-04-30T13:30:22.395Z,40.90
2017-04-30T13:32:51.234Z,40.00
2017-04-30T13:35:19.888Z,39.90
2017-04-30T13:37:48.911Z,38.20
2017-04-30T13:40:17.727Z,35.90
2017-04-30T13:42:46.381Z,37.00
2017-04-30T13:45:15.038Z,37.70
2017-04-30T13:47:43.298Z,37.70
2017-04-30T13:50:12.318Z,36.90
2017-04-30T13:52:41.148Z,38.50
2017-04-30T13:55:09.810Z,38.10
2017-04-30T13:57:38.447Z,38.20
2017-04-30T14:00:07.087Z,38.50
2017-04-30T14:02:35.769Z,40.40
2017-04-30T14:05:04.399Z,39.60
2017-04-30T14:07:32.644Z,39.60
2017-04-30T14:10:01.315Z,38.10
2017-04-30T14:12:29.953Z,38.10
2017-04-30T14:14:59.193Z,36.40
2017-04-30T14:17:28.286Z,36.60
2017-04-30T14:19:56.933Z,37.40
2017-04-30T14:22:25.578Z,37.00
2017-04-30T14:24:54.075Z,37.00
2017-04-30T14:27:22.792Z,38.30
2017-04-30T14:29:51.578Z,38.90
2017-04-30T14:32:20.654Z,37.90
2017-04-30T14:34:48.921Z,37.90
2017-04-30T14:37:17.554Z,38.80
2017-04-30T14:39:46.324Z,36.80
2017-04-30T14:42:14.567Z,36.80
2017-04-30T14:44:43.238Z,36.50
2017-04-30T14:47:12.122Z,37.20
2017-04-30T14:49:41.459Z,36.30
2017-04-30T14:52:10.084Z,37.10
2017-04-30T14:54:38.757Z,39.60
2017-04-30T14:57:07.394Z,40.20
2017-04-30T14:59:36.039Z,41.10
2017-04-30T15:02:05.079Z,40.30
2017-04-30T15:04:34.212Z,40.60
2017-04-30T15:07:02.846Z,41.20
2017-04-30T15:09:31.709Z,41.00
2017-04-30T15:12:00.725Z,40.10
2017-04-30T15:14:29.360Z,40.40
2017-04-30T15:16:58.017Z,40.60
2017-04-30T15:19:26.658Z,41.70
2017-04-30T15:21:56.241Z,42.40
2017-04-30T15:24:25.634Z,43.40
2017-04-30T15:26:54.278Z,43.20
2017-04-30T15:29:22.960Z,43.60
2017-04-30T15:31:51.642Z,43.80
2017-04-30T15:34:20.291Z,42.70
2017-04-30T15:36:49.314Z,43.10
2017-04-30T15:39:17.991Z,42.70
2017-04-30T15:41:46.248Z,42.70
2017-04-30T15:44:15.239Z,43.30
2017-04-30T15:46:43.908Z,43.50
2017-04-30T15:49:12.649Z,43.40
2017-04-30T15:51:41.291Z,43.50
2017-04-30T15:54:10.271Z,43.80
2017-04-30T15:56:39.529Z,44.10
2017-04-30T15:59:08.161Z,44.00
2017-04-30T16:01:36.830Z,42.80
2017-04-30T16:04:05.842Z,42.00
2017-04-30T16:06:34.478Z,42.40
2017-04-30T16:09:03.161Z,42.00
2017-04-30T16:11:31.815Z,41.60
2017-04-30T16:14:00.313Z,41.60
2017-04-30T16:16:28.970Z,41.50
2017-04-30T16:18:57.611Z,42.10
2017-04-30T16:21:26.731Z,42.00
2017-04-30T16:23:55.405Z,42.20
2017-04-30T16:26:24.042Z,42.40
2017-04-30T16:28:52.682Z,42.00
2017-04-30T16:31:21.200Z,42.00
2017-04-30T16:33:49.849Z,41.70
2017-04-30T16:36:18.524Z,42.20
2017-04-30T16:38:48.402Z,41.80
2017-04-30T16:41:17.071Z,42.10
2017-04-30T16:43:45.682Z,42.10
2017-04-30T16:46:15.612Z,42.40
2017-04-30T16:48:43.931Z,42.40
2017-04-30T16:51:12.558Z,42.90
2017-04-30T16:53:41.866Z,43.30
2017-04-30T16:56:11.068Z,43.60
2017-04-30T16:58:40.418Z,43.30
2017-04-30T17:01:09.381Z,43.50
2017-04-30T17:03:38.030Z,44.00
2017-04-30T17:06:07.048Z,43.70
2017-04-30T17:08:35.922Z,43.70
2017-04-30T17:11:04.557Z,43.70
2017-04-30T17:13:33.216Z,43.50
2017-04-30T17:16:02.063Z,43.20
2017-04-30T17:18:31.701Z,43.50
2017-04-30T17:20:59.960Z,43.50
2017-04-30T17:23:28.225Z,42.90
2017-04-30T17:25:56.874Z,42.40
2017-04-30T17:28:25.529Z,42.60
2017-04-30T17:30:54.440Z,42.70
2017-04-30T17:33:23.076Z,42.50
2017-04-30T17:35:51.715Z,42.40
2017-04-30T17:38:20.385Z,42.10
2017-04-30T17:40:49.370Z,41.80
2017-04-30T17:43:18.027Z,41.70
2017-04-30T17:45:46.318Z,41.70
2017-04-30T17:48:15.019Z,41.90
2017-04-30T17:50:43.672Z,41.80
2017-04-30T17:53:12.616Z,41.80
2017-04-30T17:55:41.637Z,41.90
2017-04-30T17:58:11.068Z,41.90
2017-04-30T18:00:40.033Z,42.40
2017-04-30T18:03:08.309Z,42.40
2017-04-30T18:05:37.011Z,42.30
2017-04-30T18:08:05.980Z,42.00
2017-04-30T18:10:34.678Z,42.50
2017-04-30T18:13:03.343Z,42.50
2017-04-30T18:15:32.185Z,42.50
2017-04-30T18:18:00.822Z,43.00
2017-04-30T18:20:29.465Z,43.20
2017-04-30T18:22:58.773Z,43.00
2017-04-30T18:25:28.013Z,43.20
2017-04-30T18:27:56.268Z,43.20
2017-04-30T18:30:24.545Z,43.20
2017-04-30T18:32:53.756Z,43.20
2017-04-30T18:35:22.003Z,43.60
2017-04-30T18:37:50.957Z,43.40
2017-04-30T18:40:19.598Z,43.60
2017-04-30T18:42:48.257Z,43.80
2017-04-30T18:45:17.196Z,44.00
2017-04-30T18:47:45.840Z,44.30
2017-04-30T18:50:14.818Z,44.30
2017-04-30T18:52:45.119Z,44.80
2017-04-30T18:55:15.263Z,45.10
2017-04-30T18:57:43.525Z,45.10
2017-04-30T19:00:12.452Z,45.20
2017-04-30T19:02:42.586Z,45.40
2017-04-30T19:05:11.290Z,45.70
2017-04-30T19:07:39.927Z,45.60
2017-04-30T19:10:08.566Z,46.00
2017-04-30T19:12:37.393Z,46.00
2017-04-30T19:15:06.566Z,46.00
2017-04-30T19:17:35.591Z,46.60
2017-04-30T19:20:04.597Z,46.60
2017-04-30T19:22:33.253Z,46.90
2017-04-30T19:25:01.504Z,46.90
2017-04-30T19:27:32.394Z,47.10
2017-04-30T19:30:01.937Z,47.20
2017-04-30T19:32:30.975Z,46.80
2017-04-30T19:34:59.686Z,46.80
2017-04-30T19:37:28.779Z,47.00
2017-04-30T19:39:58.364Z,47.10
2017-04-30T19:42:28.241Z,47.20
2017-04-30T19:44:57.952Z,47.10
2017-04-30T19:47:26.454Z,47.10
2017-04-30T19:50:07.545Z,47.60
2017-04-30T19:52:36.751Z,47.70
2017-04-30T19:55:05.409Z,47.90
2017-04-30T19:57:34.074Z,48.20
2017-04-30T20:00:02.769Z,48.20
2017-04-30T20:02:32.807Z,48.20
2017-04-30T20:05:02.719Z,48.50
2017-04-30T20:07:31.533Z,48.50
2017-04-30T20:10:01.524Z,48.80
2017-04-30T20:12:31.117Z,48.90
2017-04-30T20:14:59.766Z,49.30
2017-04-30T20:17:30.027Z,49.30
2017-04-30T20:19:59.080Z,49.70
2017-04-30T20:22:28.439Z,49.80
2017-04-30T20:24:57.778Z,50.10
2017-04-30T20:27:28.347Z,50.00
2017-04-30T20:29:56.999Z,50.20
2017-04-30T20:32:26.565Z,50.50
2017-04-30T20:34:55.006Z,50.50
2017-04-30T20:37:23.246Z,50.80
2017-04-30T20:39:53.395Z,51.20
2017-04-30T20:42:22.519Z,51.20
2017-04-30T20:44:51.274Z,51.40
2017-04-30T20:47:19.511Z,51.40
2017-04-30T20:49:48.563Z,51.90
2017-04-30T20:52:17.227Z,51.90
2017-04-30T20:54:46.166Z,52.10
2017-04-30T20:57:15.729Z,52.30
2017-04-30T20:59:44.616Z,52.30
2017-04-30T21:02:13.559Z,52.40
2017-04-30T21:04:42.454Z,52.40
2017-04-30T21:07:11.474Z,52.20
2017-04-30T21:09:39.749Z,52.20
2017-04-30T21:12:08.606Z,52.20
2017-04-30T21:14:38.656Z,52.40
2017-04-30T21:17:07.273Z,52.50
2017-04-30T21:19:36.226Z,52.50
2017-04-30T21:22:04.874Z,52.60
2017-04-30T21:24:33.888Z,52.90
2017-04-30T21:27:02.769Z,52.90
2017-04-30T21:29:31.404Z,53.00
2017-04-30T21:32:00.046Z,53.30
2017-04-30T21:34:28.728Z,53.20
2017-04-30T21:36:57.372Z,53.20
2017-04-30T21:39:26.002Z,53.20
2017-04-30T21:41:54.933Z,53.30
2017-04-30T21:44:23.259Z,53.30
2017-04-30T21:46:51.470Z,53.70
2017-04-30T21:49:20.739Z,53.80
2017-04-30T21:51:48.986Z,53.80
2017-04-30T21:54:17.213Z,53.80
2017-04-30T21:56:46.824Z,53.90
2017-04-30T21:59:15.476Z,54.00
2017-04-30T22:01:43.725Z,54.00
2017-04-30T22:04:12.409Z,54.40
2017-04-30T22:06:41.037Z,54.60
2017-04-30T22:09:09.671Z,54.50
2017-04-30T22:11:38.543Z,54.20
2017-04-30T22:14:07.550Z,54.10
2017-04-30T22:16:36.188Z,54.60
2017-04-30T22:19:04.872Z,54.60
2017-04-30T22:21:33.640Z,54.50
2017-04-30T22:24:02.284Z,54.70
2017-04-30T22:26:30.790Z,54.70
2017-04-30T22:28:59.715Z,54.90
2017-04-30T22:31:28.347Z,54.70
2017-04-30T22:33:56.817Z,54.70
2017-04-30T22:36:25.573Z,54.80
2017-04-30T22:38:54.222Z,55.00
2017-04-30T22:41:22.865Z,55.00
2017-04-30T22:43:52.996Z,55.10
2017-04-30T22:46:21.634Z,55.30
2017-04-30T22:48:50.301Z,55.00
2017-04-30T22:51:18.936Z,55.40
2017-04-30T22:53:48.567Z,55.50
2017-04-30T22:56:17.428Z,55.30
2017-04-30T22:58:46.084Z,55.60
2017-04-30T23:01:14.716Z,56.00
2017-04-30T23:03:43.394Z,56.10
2017-04-30T23:06:12.044Z,56.40
2017-04-30T23:08:41.051Z,56.60
2017-04-30T23:11:09.557Z,56.60
2017-04-30T23:13:38.189Z,56.70
2017-04-30T23:16:06.845Z,56.70
2017-04-30T23:18:35.777Z,57.00
2017-04-30T23:21:04.018Z,57.00
2017-04-30T23:23:32.666Z,56.90
2017-04-30T23:26:01.324Z,57.30
2017-04-30T23:28:29.978Z,57.20
2017-04-30T23:30:58.601Z,57.40
2017-04-30T23:33:27.572Z,57.20
2017-04-30T23:35:56.598Z,57.20
2017-04-30T23:38:25.231Z,57.40
2017-04-30T23:40:54.419Z,57.40
2017-04-30T23:43:23.058Z,57.30
2017-04-30T23:45:51.694Z,57.70
2017-04-30T23:48:20.737Z,57.60
2017-04-30T23:50:49.366Z,57.70
2017-04-30T23:53:18.010Z,57.80
2017-04-30T23:55:46.760Z,58.10
2017-04-30T23:58:15.400Z,58.10
